Time;durP1;ratioP1;P1;durP2;ratioP2;P2;SDS_P1;SDS_P2;PMS_P1;PMS_P2;Temp;Humidity;BMP_temperature;BMP_pressure;BME280_temperature;BME280_humidity;BME280_pressure;Samples;Min_cycle;Max_cycle;Signal;HPM_P1;HPM_P2
2023/05/04 00:00:35;;;;;;;53.15;33.97;;;;;;;17.51;48.71;93976.69;4967598;28;20043;-91
2023/05/04 00:03:01;;;;;;;54.65;34.97;;;;;;;17.51;48.29;93976.69;4918633;29;20035;-91
2023/05/04 00:05:26;;;;;;;61.05;36.90;;;;;;;17.50;48.60;93978.69;4929745;28;20031;-91
2023/05/04 00:07:52;;;;;;;57.65;33.42;;;;;;;17.51;48.57;93973.97;4949473;28;20043;-90
2023/05/04 00:10:17;;;;;;;50.47;30.60;;;;;;;17.48;48.57;93968.22;4933188;28;20035;-92
2023/05/04 00:12:45;;;;;;;54.88;33.60;;;;;;;17.50;48.57;93961.53;4917701;29;20054;-91
2023/05/04 00:15:10;;;;;;;57.92;36.08;;;;;;;17.46;49.05;93964.50;4914499;28;20074;-91
2023/05/04 00:17:35;;;;;;;63.25;35.47;;;;;;;17.46;48.98;93962.50;4958440;28;20042;-91
2023/05/04 00:20:01;;;;;;;58.65;34.20;;;;;;;17.48;48.23;93968.22;4969322;28;20039;-91
2023/05/04 00:22:27;;;;;;;54.42;33.60;;;;;;;17.47;48.75;93958.53;4922151;28;20051;-91
2023/05/04 00:24:52;;;;;;;53.10;32.75;;;;;;;17.46;48.44;93959.03;4960884;28;20030;-91
2023/05/04 00:27:18;;;;;;;54.55;33.17;;;;;;;17.48;48.41;93964.75;4931381;28;20439;-91
2023/05/04 00:29:43;;;;;;;55.47;34.75;;;;;;;17.45;48.42;93958.28;4936733;28;20132;-91
2023/05/04 00:32:11;;;;;;;56.63;32.78;;;;;;;17.45;48.81;93952.81;4922934;28;20621;-91
2023/05/04 00:34:37;;;;;;;49.70;32.33;;;;;;;17.47;48.48;93953.06;4947536;28;20413;-91
2023/05/04 00:37:02;;;;;;;51.55;33.33;;;;;;;17.43;48.20;93952.56;4947453;28;20054;-91
2023/05/04 00:39:28;;;;;;;54.65;33.47;;;;;;;17.45;48.62;93950.06;4917712;29;20043;-91
2023/05/04 00:41:53;;;;;;;47.13;31.58;;;;;;;17.46;48.44;93950.81;4913349;29;20055;-91
2023/05/04 00:44:22;;;;;;;50.80;32.40;;;;;;;17.44;48.44;93951.31;4907018;28;20038;-91
2023/05/04 00:46:47;;;;;;;52.00;31.40;;;;;;;17.42;48.50;93945.59;4909393;29;20130;-91
2023/05/04 00:49:13;;;;;;;53.25;31.45;;;;;;;17.45;48.58;93950.06;4916677;28;20028;-91
2023/05/04 00:51:39;;;;;;;48.25;31.45;;;;;;;17.42;49.13;93939.38;4909603;29;20046;-91
2023/05/04 00:54:05;;;;;;;48.53;30.35;;;;;;;17.43;48.58;93933.41;4903753;28;20030;-91
2023/05/04 00:56:31;;;;;;;52.75;31.15;;;;;;;17.41;48.63;93937.88;4916472;28;20051;-92
2023/05/04 00:58:57;;;;;;;46.65;29.60;;;;;;;17.45;48.72;93932.94;4917453;29;20043;-91
2023/05/04 01:01:23;;;;;;;51.20;29.52;;;;;;;17.43;48.29;93933.41;4920309;28;20047;-92
2023/05/04 01:03:49;;;;;;;48.97;31.40;;;;;;;17.45;48.56;93936.41;4933358;29;20047;-91
2023/05/04 01:06:42;;;;;;;49.20;28.83;;;;;;;17.42;48.38;93937.38;4900118;28;20447;-91
2023/05/04 01:09:38;;;;;;;44.60;29.05;;;;;;;17.40;48.73;93939.13;4950067;28;20054;-91
2023/05/04 01:12:09;;;;;;;51.10;29.17;;;;;;;17.42;48.45;93931.19;4913537;28;20059;-91
2023/05/04 01:14:34;;;;;;;48.40;29.52;;;;;;;17.40;48.49;93928.19;4926942;29;20130;-91
2023/05/04 01:17:02;;;;;;;51.28;30.08;;;;;;;17.39;48.44;93930.16;4915383;29;20122;-91
2023/05/04 01:19:28;;;;;;;50.72;31.67;;;;;;;17.40;48.43;93941.84;4929009;29;20146;-91
2023/05/04 01:21:53;;;;;;;41.60;27.90;;;;;;;17.41;48.22;93935.91;4901131;29;20043;-91
2023/05/04 01:24:19;;;;;;;43.72;28.83;;;;;;;17.39;48.30;93930.16;4900531;28;20039;-91
2023/05/04 01:26:45;;;;;;;47.05;29.42;;;;;;;17.40;48.68;93933.66;4926369;28;20541;-91
2023/05/04 01:29:15;;;;;;;46.40;27.42;;;;;;;17.39;48.83;93932.91;4916126;28;20453;-91
2023/05/04 01:31:40;;;;;;;44.78;28.58;;;;;;;17.40;48.48;93933.66;4917020;28;20102;-91
2023/05/04 01:34:06;;;;;;;43.65;27.20;;;;;;;17.40;48.75;93937.13;4916450;28;20043;-92
2023/05/04 01:36:32;;;;;;;43.45;27.40;;;;;;;17.38;48.43;93936.88;4948697;28;20043;-91
2023/05/04 01:38:58;;;;;;;44.35;28.10;;;;;;;17.38;48.83;93933.38;4901124;29;20095;-90
2023/05/04 01:41:24;;;;;;;46.10;27.40;;;;;;;17.39;48.68;93935.63;4897626;28;20411;-91
2023/05/04 01:43:49;;;;;;;45.97;29.02;;;;;;;17.39;48.60;93937.63;4932640;29;20046;-91
2023/05/04 01:46:15;;;;;;;43.35;28.25;;;;;;;17.38;48.64;93942.34;4916080;28;20121;-91
2023/05/04 01:48:40;;;;;;;43.08;27.20;;;;;;;17.38;48.24;93942.34;4935152;28;20054;-91
2023/05/04 01:51:06;;;;;;;40.15;27.10;;;;;;;17.39;47.95;93932.16;4914133;28;20027;-91
2023/05/04 01:53:31;;;;;;;42.55;27.15;;;;;;;17.38;48.39;93931.41;4909663;29;20090;-91
2023/05/04 01:55:56;;;;;;;37.00;24.75;;;;;;;17.36;48.62;93931.16;4946115;28;20059;-91
2023/05/04 01:58:22;;;;;;;40.92;26.58;;;;;;;17.37;48.75;93932.66;4935207;28;20051;-91
2023/05/04 02:00:47;;;;;;;38.97;26.02;;;;;;;17.36;48.65;93928.41;4933356;28;20098;-90
2023/05/04 02:03:13;;;;;;;39.67;26.10;;;;;;;17.36;48.39;93925.69;4928270;28;20048;-91
2023/05/04 02:05:38;;;;;;;44.08;25.67;;;;;;;17.38;48.28;93922.47;4924863;28;20046;-91
2023/05/04 02:08:04;;;;;;;37.97;24.90;;;;;;;17.39;48.57;93926.69;4919381;28;20050;-91
2023/05/04 02:10:29;;;;;;;44.38;27.20;;;;;;;17.37;48.75;93927.19;4936163;28;20038;-91
2023/05/04 02:12:55;;;;;;;47.55;26.33;;;;;;;17.38;48.46;93925.19;4898373;29;20047;-91
2023/05/04 02:15:20;;;;;;;39.72;25.80;;;;;;;17.35;49.08;93926.16;4900620;28;20048;-91
2023/05/04 02:17:45;;;;;;;39.35;24.33;;;;;;;17.34;48.85;93908.28;4916949;29;20499;-91
2023/05/04 02:20:11;;;;;;;41.08;24.80;;;;;;;17.35;48.48;93915.25;4900276;28;20402;-91
2023/05/04 02:22:37;;;;;;;35.72;23.70;;;;;;;17.33;48.47;93923.94;4913167;29;20043;-91
2023/05/04 02:25:03;;;;;;;43.03;24.50;;;;;;;17.36;48.46;93916.72;4903033;28;20454;-93
2023/05/04 02:27:28;;;;;;;36.85;23.52;;;;;;;17.35;48.23;93913.25;4908120;28;20130;-91
2023/05/04 02:29:57;;;;;;;38.78;25.13;;;;;;;17.33;48.61;93925.91;4921297;28;20046;-91
2023/05/04 02:32:23;;;;;;;34.30;22.92;;;;;;;17.36;48.40;93920.22;4907220;28;20051;-91
2023/05/04 02:34:48;;;;;;;35.63;23.17;;;;;;;17.37;48.50;93916.25;4932770;29;20048;-91
2023/05/04 02:37:13;;;;;;;36.47;22.95;;;;;;;17.35;48.25;93920.72;4959605;28;20051;-91
2023/05/04 02:39:39;;;;;;;35.78;24.63;;;;;;;17.33;48.42;93917.72;4921141;29;20043;-91
2023/05/04 02:42:04;;;;;;;38.25;23.55;;;;;;;17.31;48.55;93920.22;4902046;28;20362;-90
2023/05/04 02:44:30;;;;;;;40.17;24.20;;;;;;;17.32;48.58;93916.97;4903969;29;20094;-91
2023/05/04 02:46:55;;;;;;;38.33;23.80;;;;;;;17.34;48.35;93916.47;4901297;29;20036;-92
2023/05/04 02:49:21;;;;;;;34.35;23.08;;;;;;;17.32;48.71;93918.97;4935187;28;20395;-91
2023/05/04 02:51:46;;;;;;;32.92;23.08;;;;;;;17.32;48.40;93919.69;4903780;29;20441;-92
2023/05/04 02:54:12;;;;;;;35.65;22.95;;;;;;;17.33;48.15;93918.47;4934521;28;20039;-91
2023/05/04 02:56:37;;;;;;;36.17;23.02;;;;;;;17.31;48.25;93929.16;4921201;28;20043;-91
2023/05/04 02:59:03;;;;;;;36.67;22.50;;;;;;;17.32;48.49;93927.19;4937682;28;20046;-91
2023/05/04 03:01:28;;;;;;;35.05;22.08;;;;;;;17.29;48.73;93915.25;4934471;28;20054;-91
2023/05/04 03:03:53;;;;;;;36.33;22.70;;;;;;;17.32;48.48;93925.16;4921392;28;20039;-91
2023/05/04 03:06:19;;;;;;;35.00;22.13;;;;;;;17.31;49.06;93920.97;4937827;28;20027;-91
2023/05/04 03:08:44;;;;;;;33.33;22.38;;;;;;;17.31;48.45;93928.41;4938791;28;20525;-91
2023/05/04 03:11:10;;;;;;;35.75;22.63;;;;;;;17.30;48.75;93930.41;4937839;28;20461;-91
2023/05/04 03:13:35;;;;;;;31.38;21.23;;;;;;;17.30;48.89;93929.66;4926932;28;20519;-91
2023/05/04 03:16:01;;;;;;;29.77;20.02;;;;;;;17.31;48.48;93922.94;4919321;29;20032;-91
2023/05/04 03:18:26;;;;;;;29.60;20.33;;;;;;;17.28;48.50;93918.47;4969896;28;20073;-91
2023/05/04 03:20:51;;;;;;;35.75;20.92;;;;;;;17.29;48.66;93928.91;4938700;28;20050;-91
2023/05/04 03:23:17;;;;;;;28.17;20.20;;;;;;;17.28;48.37;93923.94;4922001;28;20509;-92
2023/05/04 03:25:42;;;;;;;26.88;18.83;;;;;;;17.26;48.43;93931.88;4939092;28;20031;-91
2023/05/04 03:28:08;;;;;;;27.00;19.63;;;;;;;17.28;48.49;93921.94;4903470;28;20043;-91
2023/05/04 03:30:35;;;;;;;31.90;20.50;;;;;;;17.28;48.65;93916.47;4932274;29;20095;-91
2023/05/04 03:33:00;;;;;;;31.98;19.17;;;;;;;17.27;48.71;93930.63;4928381;28;20082;-91
2023/05/04 03:35:35;;;;;;;41.45;19.80;;;;;;;17.26;48.51;93929.88;4904884;28;20077;-91
2023/05/04 03:38:00;;;;;;;48.90;23.30;;;;;;;17.28;47.92;93932.88;4939482;29;20039;-91
2023/05/04 03:40:26;;;;;;;48.45;27.95;;;;;;;17.33;48.15;93937.59;4919906;28;20047;-91
2023/05/04 03:42:51;;;;;;;44.30;27.15;;;;;;;17.42;48.89;93934.66;4902881;29;20039;-89
2023/05/04 03:45:17;;;;;;;42.85;24.02;;;;;;;17.46;48.01;93937.16;4949006;28;20058;-92
2023/05/04 03:47:42;;;;;;;43.45;21.55;;;;;;;17.41;48.36;93932.41;4936982;28;20051;-93
2023/05/04 03:50:08;;;;;;;36.70;22.60;;;;;;;17.44;48.51;93931.44;4918371;28;20039;-90
2023/05/04 03:52:34;;;;;;;45.78;21.95;;;;;;;17.44;48.34;93932.19;4926352;28;20043;-89
2023/05/04 03:55:00;;;;;;;37.13;22.23;;;;;;;17.43;48.38;93927.94;4933191;28;20454;-89
2023/05/04 03:57:26;;;;;;;46.58;23.98;;;;;;;17.42;48.34;93928.44;4913869;28;20079;-90
2023/05/04 03:59:51;;;;;;;155.70;45.72;;;;;;;17.54;47.89;93931.97;4902077;29;20039;-92
2023/05/04 04:02:17;;;;;;;88.10;24.50;;;;;;;17.43;44.10;93935.41;4934195;28;20058;-92
2023/05/04 04:04:42;;;;;;;51.50;20.73;;;;;;;17.37;42.41;93932.66;4921025;29;20094;-89
2023/05/04 04:07:08;;;;;;;71.20;18.23;;;;;;;17.25;40.54;93925.66;4905078;28;20039;-91
2023/05/04 04:09:33;;;;;;;59.47;15.07;;;;;;;17.22;39.71;93939.53;4932247;29;20625;-92
2023/05/04 04:11:59;;;;;;;61.45;15.52;;;;;;;17.21;39.36;93927.13;4918317;29;20050;-90
2023/05/04 04:14:25;;;;;;;74.07;18.27;;;;;;;17.04;39.25;93933.25;4950749;28;20047;-88
2023/05/04 04:16:50;;;;;;;65.70;19.52;;;;;;;16.95;39.27;93935.44;4951566;28;20056;-92
2023/05/04 04:19:16;;;;;;;120.82;26.25;;;;;;;16.93;39.33;93937.91;4904316;28;20070;-87
2023/05/04 04:21:41;;;;;;;94.85;22.60;;;;;;;16.86;38.51;93935.66;4935966;28;20074;-88
2023/05/04 04:24:08;;;;;;;198.73;97.07;;;;;;;16.76;38.86;93943.25;4900681;28;20051;-89
2023/05/04 04:26:34;;;;;;;91.15;21.65;;;;;;;16.67;39.00;93944.19;4948397;28;20145;-88
2023/05/04 04:28:59;;;;;;;65.70;18.83;;;;;;;16.51;38.85;93944.06;4956232;28;20077;-91
2023/05/04 04:31:25;;;;;;;91.32;22.25;;;;;;;16.57;38.61;93958.50;4934128;28;20043;-89
2023/05/04 04:33:50;;;;;;;151.85;24.75;;;;;;;16.50;38.76;93950.75;4920480;29;20039;-88
2023/05/04 04:36:17;;;;;;;53.35;15.43;;;;;;;16.45;39.01;93961.13;4902138;28;20394;-87
2023/05/04 04:38:43;;;;;;;48.83;14.05;;;;;;;16.43;39.09;93949.22;4908652;29;20071;-88
2023/05/04 04:41:10;;;;;;;83.30;24.13;;;;;;;16.51;39.16;93961.19;4918066;28;20102;-91
2023/05/04 04:43:36;;;;;;;99.90;28.30;;;;;;;16.60;38.83;93954.81;4915975;29;20085;-90
2023/05/04 04:46:02;;;;;;;152.50;45.97;;;;;;;16.65;39.09;93963.06;4950374;28;20050;-89
2023/05/04 04:48:28;;;;;;;181.20;54.22;;;;;;;16.71;39.19;93960.34;4921142;29;20051;-87
2023/05/04 04:50:54;;;;;;;145.35;53.67;;;;;;;16.72;39.31;93961.84;4919639;29;20035;-88
2023/05/04 04:53:20;;;;;;;154.30;65.63;;;;;;;16.80;39.57;93957.44;4933629;28;20046;-89
2023/05/04 04:55:45;;;;;;;161.38;67.97;;;;;;;16.86;39.67;93960.97;4918627;29;20027;-88
2023/05/04 04:58:11;;;;;;;171.13;67.13;;;;;;;16.88;39.59;93961.22;4902215;28;20054;-89
2023/05/04 05:00:36;;;;;;;232.43;104.03;;;;;;;16.92;39.68;93964.47;4896800;29;20546;-86
2023/05/04 05:03:03;;;;;;;216.57;100.22;;;;;;;17.02;40.16;93965.03;4929979;28;20024;-88
2023/05/04 05:05:28;;;;;;;194.23;85.72;;;;;;;17.02;40.17;93960.31;4902172;29;20501;-87
2023/05/04 05:07:54;;;;;;;247.90;108.78;;;;;;;17.08;40.63;93965.81;4953044;28;20122;-88
2023/05/04 05:10:20;;;;;;;226.32;95.70;;;;;;;17.09;40.90;93970.03;4898832;28;20044;-91
2023/05/04 05:12:46;;;;;;;194.13;76.85;;;;;;;17.09;41.25;93970.03;4914905;28;20035;-90
2023/05/04 05:15:12;;;;;;;191.30;80.25;;;;;;;17.13;41.17;93965.81;4965096;28;20081;-90
2023/05/04 05:17:38;;;;;;;241.32;90.03;;;;;;;17.16;41.58;93963.34;4915882;29;20043;-89
2023/05/04 05:20:09;;;;;;;225.90;79.72;;;;;;;17.20;41.54;93967.34;4915365;28;20043;-88
2023/05/04 05:22:35;;;;;;;235.63;90.38;;;;;;;17.22;41.56;93962.16;4914884;29;20419;-88
2023/05/04 05:25:00;;;;;;;251.43;96.68;;;;;;;17.28;41.27;93967.66;4917871;29;20042;-89
2023/05/04 05:27:26;;;;;;;149.45;57.00;;;;;;;17.20;40.91;93958.41;4934085;28;20046;-89
2023/05/04 05:29:51;;;;;;;105.07;43.58;;;;;;;17.13;40.30;93960.34;4916004;28;20048;-88
2023/05/04 05:32:18;;;;;;;139.93;43.58;;;;;;;17.00;40.37;93960.03;4915784;28;20661;-89
2023/05/04 05:34:44;;;;;;;102.20;34.97;;;;;;;16.94;40.35;93953.81;4916399;29;20561;-88
2023/05/04 05:37:10;;;;;;;101.13;34.25;;;;;;;16.98;40.33;93950.84;4930243;28;20067;-88
2023/05/04 05:39:36;;;;;;;75.20;28.10;;;;;;;16.84;40.42;93952.50;4922652;29;20047;-88
2023/05/04 05:42:02;;;;;;;70.38;29.15;;;;;;;16.86;40.17;93952.78;4922196;28;20114;-90
2023/05/04 05:44:27;;;;;;;59.63;22.08;;;;;;;16.81;40.63;93952.72;4925911;28;20083;-91
2023/05/04 05:46:53;;;;;;;55.90;21.45;;;;;;;16.85;40.50;93954.00;4934203;29;20046;-92
2023/05/04 05:49:21;;;;;;;89.43;22.50;;;;;;;16.84;40.92;93949.78;4918807;28;20067;-87
2023/05/04 05:51:47;;;;;;;76.25;22.60;;;;;;;16.91;40.86;93945.81;4897922;29;20056;-86
2023/05/04 05:54:12;;;;;;;81.53;27.88;;;;;;;16.90;40.80;93945.06;4900684;28;20031;-87
2023/05/04 05:56:39;;;;;;;106.00;28.90;;;;;;;16.91;41.02;93949.31;4910704;29;20044;-93
2023/05/04 05:59:05;;;;;;;97.47;28.65;;;;;;;16.91;41.14;93946.56;4890752;28;20062;-91
2023/05/04 06:01:30;;;;;;;72.35;21.92;;;;;;;16.92;40.96;93945.34;4930555;29;20059;-85
2023/05/04 06:03:56;;;;;;;77.50;21.33;;;;;;;16.93;40.91;93946.84;4950312;28;20035;-88
2023/05/04 06:06:21;;;;;;;101.68;22.30;;;;;;;17.06;41.71;93949.91;4920437;28;20035;-89
2023/05/04 06:08:47;;;;;;;77.90;18.02;;;;;;;17.02;41.47;93943.91;4939811;28;20043;-86
2023/05/04 06:11:12;;;;;;;105.10;18.70;;;;;;;17.10;42.05;93950.41;4912723;28;20035;-85
2023/05/04 06:13:39;;;;;;;76.72;21.00;;;;;;;17.07;41.47;93945.19;4954629;28;20043;-90
2023/05/04 06:16:04;;;;;;;42.33;12.02;;;;;;;17.04;41.68;93946.91;4918466;28;20042;-86
2023/05/04 06:18:31;;;;;;;40.35;11.43;;;;;;;17.08;42.11;93952.91;4954825;28;20043;-87
2023/05/04 06:21:00;;;;;;;47.00;13.52;;;;;;;17.03;42.20;93950.88;4934042;28;20039;-90
2023/05/04 06:23:29;;;;;;;44.17;13.50;;;;;;;17.04;42.02;93946.91;4904163;28;20094;-91
2023/05/04 06:25:55;;;;;;;60.70;14.68;;;;;;;17.02;42.30;93945.91;4917802;28;20086;-89
2023/05/04 06:28:20;;;;;;;82.93;26.27;;;;;;;17.00;41.97;93956.56;4918884;28;20043;-90
2023/05/04 06:30:48;;;;;;;90.93;23.08;;;;;;;17.01;42.26;93950.63;4918683;28;20051;-93
2023/05/04 06:33:14;;;;;;;134.43;38.92;;;;;;;17.03;42.52;93950.88;4933103;28;20040;-93
2023/05/04 06:35:40;;;;;;;91.88;28.35;;;;;;;16.95;42.55;93946.34;4929181;28;20054;-91
2023/05/04 06:38:07;;;;;;;185.43;35.45;;;;;;;16.94;42.79;93953.06;4918619;28;20035;-88
2023/05/04 06:40:33;;;;;;;127.18;27.40;;;;;;;16.98;42.75;93954.31;4922046;29;20051;-88
2023/05/04 06:42:58;;;;;;;148.88;26.08;;;;;;;17.01;42.48;93949.88;4914056;29;20052;-88
2023/05/04 06:45:24;;;;;;;157.15;37.63;;;;;;;17.03;42.64;93953.63;4914723;28;20047;-88
2023/05/04 06:47:51;;;;;;;297.23;108.35;;;;;;;17.04;42.66;93944.19;4949404;28;20461;-89
2023/05/04 06:50:16;;;;;;;93.60;23.20;;;;;;;16.97;42.59;93946.63;4934646;28;20175;-87
2023/05/04 06:52:42;;;;;;;106.80;20.23;;;;;;;17.01;43.02;93941.69;4917943;28;20042;-87
2023/05/04 06:55:08;;;;;;;101.95;26.77;;;;;;;17.03;42.52;93937.22;4917224;28;20043;-88
2023/05/04 06:57:33;;;;;;;114.43;23.65;;;;;;;17.05;42.18;93945.69;4930983;28;20039;-88
2023/05/04 06:59:59;;;;;;;78.88;19.48;;;;;;;17.04;42.59;93946.16;4936416;29;20054;-88
2023/05/04 07:02:24;;;;;;;109.35;23.55;;;;;;;17.01;42.72;93947.13;4917284;28;20039;-90
2023/05/04 07:04:51;;;;;;;119.20;25.27;;;;;;;17.00;42.52;93940.94;4920088;29;20044;-86
2023/05/04 07:07:17;;;;;;;170.57;31.05;;;;;;;16.99;42.37;93939.44;4933652;28;20042;-87
2023/05/04 07:09:43;;;;;;;133.93;26.88;;;;;;;17.00;42.09;93946.38;4949197;28;20035;-88
2023/05/04 07:12:08;;;;;;;123.10;28.85;;;;;;;17.02;42.16;93943.16;4903182;28;20079;-87
2023/05/04 07:14:34;;;;;;;156.55;30.92;;;;;;;17.02;41.82;93948.63;4900452;29;20044;-84
2023/05/04 07:16:59;;;;;;;146.77;30.13;;;;;;;17.08;41.90;93952.16;4934613;28;20139;-88
2023/05/04 07:19:25;;;;;;;128.43;27.98;;;;;;;17.07;41.92;93947.94;4917433;28;20042;-87
2023/05/04 07:21:51;;;;;;;108.80;24.33;;;;;;;17.08;41.93;93952.91;4918760;29;20043;-88
2023/05/04 07:24:16;;;;;;;129.20;26.67;;;;;;;17.11;41.98;93954.63;4931776;28;20399;-87
2023/05/04 07:26:42;;;;;;;182.43;40.83;;;;;;;17.06;41.55;93960.09;4919315;29;20065;-87
2023/05/04 07:29:08;;;;;;;153.13;36.25;;;;;;;17.11;42.09;93956.63;4905688;28;20036;-90
2023/05/04 07:31:34;;;;;;;186.05;34.30;;;;;;;17.06;41.51;93960.09;4898520;29;20071;-92
2023/05/04 07:33:59;;;;;;;153.73;34.42;;;;;;;17.12;41.60;93945.19;4941382;28;20035;-89
2023/05/04 07:36:26;;;;;;;218.95;65.03;;;;;;;17.21;41.39;93952.47;4927377;28;20802;-86
2023/05/04 07:38:52;;;;;;;159.38;43.42;;;;;;;17.25;41.50;93952.22;4924425;29;20043;-90
2023/05/04 07:41:17;;;;;;;170.57;38.13;;;;;;;17.20;41.62;93959.16;4905713;28;20050;-88
2023/05/04 07:43:43;;;;;;;147.15;36.10;;;;;;;17.24;41.85;93942.53;4939895;28;20127;-89
2023/05/04 07:46:08;;;;;;;147.85;35.72;;;;;;;17.26;41.79;93948.25;4938575;28;20047;-91
2023/05/04 07:48:34;;;;;;;126.65;35.20;;;;;;;17.31;42.14;93944.81;4901590;29;20414;-92
2023/05/04 07:50:59;;;;;;;168.45;45.38;;;;;;;17.33;41.89;93943.06;4915507;29;20111;-91
2023/05/04 07:53:25;;;;;;;126.60;34.25;;;;;;;17.36;42.44;93939.34;4950378;28;20039;-89
2023/05/04 07:55:53;;;;;;;138.60;39.70;;;;;;;17.39;42.43;93943.09;4903161;29;20419;-90
2023/05/04 07:58:19;;;;;;;95.07;32.47;;;;;;;17.41;42.63;93948.81;4915620;28;20047;-86
2023/05/04 08:00:44;;;;;;;154.40;39.15;;;;;;;17.41;42.60;93941.34;4945221;28;20042;-86
2023/05/04 08:03:09;;;;;;;133.05;38.47;;;;;;;17.54;42.31;93940.19;4915197;28;20058;-87
2023/05/04 08:05:35;;;;;;;170.55;51.30;;;;;;;17.52;42.03;93931.72;4899262;29;20054;-85
2023/05/04 08:08:00;;;;;;;175.88;48.90;;;;;;;17.55;42.17;93936.19;4901199;28;20058;-85
2023/05/04 08:10:26;;;;;;;158.48;51.17;;;;;;;17.55;42.49;93934.19;4912580;28;20442;-87
2023/05/04 08:12:51;;;;;;;182.48;54.80;;;;;;;17.55;42.54;93936.94;4913711;29;20039;-86
2023/05/04 08:15:17;;;;;;;147.00;50.42;;;;;;;17.64;42.69;93927.75;4897089;28;20047;-87
2023/05/04 08:17:43;;;;;;;201.43;67.03;;;;;;;17.61;42.56;93936.94;4927549;28;20146;-89
2023/05/04 08:20:09;;;;;;;211.48;66.35;;;;;;;17.59;42.71;93939.44;4943872;28;20043;-94
2023/05/04 08:22:38;;;;;;;255.60;84.95;;;;;;;17.59;42.79;93939.44;4930672;28;20041;-95
2023/05/04 08:25:06;;;;;;;189.10;82.63;;;;;;;17.59;42.84;93940.16;4928790;28;20071;-91
2023/05/04 08:27:32;;;;;;;151.90;67.60;;;;;;;17.62;43.17;93933.72;4939811;28;20051;-92
2023/05/04 08:29:59;;;;;;;183.07;84.57;;;;;;;17.66;42.80;93939.72;4927020;29;20050;-90
2023/05/04 08:32:26;;;;;;;193.10;86.05;;;;;;;17.64;42.59;93931.28;4958155;28;20047;-89
2023/05/04 08:34:52;;;;;;;258.08;105.70;;;;;;;17.62;42.68;93932.97;4929582;28;20043;-89
2023/05/04 08:37:17;;;;;;;211.73;93.63;;;;;;;17.63;43.24;93918.06;4924156;28;20031;-93
2023/05/04 08:39:43;;;;;;;207.10;98.70;;;;;;;17.65;42.73;93924.56;4913432;28;20050;-91
2023/05/04 08:42:08;;;;;;;191.57;83.75;;;;;;;17.64;42.44;93928.53;4920943;28;20502;-88
2023/05/04 08:44:34;;;;;;;221.75;98.90;;;;;;;17.64;43.27;93922.31;4958153;28;20795;-89
2023/05/04 08:47:02;;;;;;;214.40;100.30;;;;;;;17.62;43.29;93919.31;4934145;28;20045;-90
2023/05/04 08:49:28;;;;;;;208.65;102.32;;;;;;;17.63;43.17;93921.56;4951545;28;20054;-90
2023/05/04 08:51:53;;;;;;;201.95;102.43;;;;;;;17.66;43.23;93928.78;4948168;28;20097;-92
2023/05/04 08:54:19;;;;;;;198.77;102.97;;;;;;;17.66;43.16;93923.34;4914546;23;20055;-89
2023/05/04 08:56:46;;;;;;;185.77;93.05;;;;;;;17.70;43.16;93914.91;4924957;29;20051;-92
2023/05/04 08:59:18;;;;;;;248.23;109.63;;;;;;;17.77;43.11;93925.34;4948492;28;20058;-89
2023/05/04 09:01:46;;;;;;;262.20;112.05;;;;;;;17.77;42.57;93919.84;4939752;28;20035;-91
2023/05/04 09:04:11;;;;;;;239.30;110.63;;;;;;;17.73;42.91;93922.84;4922383;29;20055;-91
2023/05/04 09:06:39;;;;;;;240.65;99.57;;;;;;;17.70;43.11;93923.84;4913494;29;20079;-91
2023/05/04 09:09:04;;;;;;;524.28;160.57;;;;;;;17.72;42.76;93928.81;4922371;28;20066;-92
2023/05/04 09:11:38;;;;;;;468.40;168.50;;;;;;;17.74;43.11;93929.06;4929827;29;20039;-91
2023/05/04 09:14:04;;;;;;;282.75;118.93;;;;;;;17.76;42.41;93915.63;4918956;23;20048;-92
2023/05/04 09:16:35;;;;;;;283.50;120.82;;;;;;;17.75;42.42;93917.63;4926902;23;20036;-92
2023/05/04 09:19:01;;;;;;;319.42;144.52;;;;;;;17.78;42.60;93924.09;4933419;28;20073;-94
2023/05/04 09:21:33;;;;;;;279.50;109.90;;;;;;;17.80;41.75;93921.59;4940849;29;20043;-91
2023/05/04 09:23:58;;;;;;;325.67;139.68;;;;;;;17.77;42.16;93911.66;4924368;29;20035;-92
2023/05/04 09:26:38;;;;;;;313.65;139.95;;;;;;;17.78;42.66;93913.91;4932404;23;20055;-90
2023/05/04 09:29:15;;;;;;;334.65;145.98;;;;;;;17.79;42.52;93911.91;4939661;28;20071;-93
2023/05/04 09:31:57;;;;;;;330.45;157.07;;;;;;;17.80;42.60;93910.66;4965939;23;20075;-90
2023/05/04 09:34:22;;;;;;;279.13;137.48;;;;;;;17.81;42.37;93915.66;4908644;29;20051;-92
2023/05/04 09:37:00;;;;;;;332.15;167.20;;;;;;;17.83;42.81;93917.88;4890087;29;20112;-93
2023/05/04 09:39:29;;;;;;;327.50;161.40;;;;;;;17.79;42.73;93911.91;4919099;23;20040;-91
2023/05/04 09:41:55;;;;;;;279.83;133.55;;;;;;;17.79;42.51;93909.19;4925627;29;20054;-92
2023/05/04 09:44:21;;;;;;;296.50;140.40;;;;;;;17.86;42.75;93907.94;4937990;28;20075;-90
2023/05/04 09:46:57;;;;;;;285.50;127.75;;;;;;;17.87;42.48;93903.97;4912500;29;20028;-89
2023/05/04 09:49:32;;;;;;;257.42;122.72;;;;;;;17.81;42.78;93904.72;4947086;28;20071;-91
2023/05/04 09:52:01;;;;;;;235.05;124.28;;;;;;;17.84;43.58;93910.44;4924365;29;20122;-89
2023/05/04 09:54:26;;;;;;;283.55;131.18;;;;;;;17.87;42.58;93921.13;4918604;28;20043;-87
2023/05/04 09:56:51;;;;;;;324.25;160.25;;;;;;;17.84;43.17;93911.19;4903357;29;20047;-87
2023/05/04 09:59:17;;;;;;;389.63;200.20;;;;;;;17.90;42.66;93903.75;4951594;28;20032;-89
2023/05/04 10:01:43;;;;;;;342.73;176.85;;;;;;;17.88;42.73;93900.75;4937622;28;20067;-91
2023/05/04 10:04:08;;;;;;;346.00;157.15;;;;;;;17.94;42.49;93895.28;4911999;28;20119;-87
2023/05/04 10:06:34;;;;;;;308.40;139.05;;;;;;;17.88;43.25;93887.06;4942061;28;20054;-86
2023/05/04 10:09:00;;;;;;;345.67;158.23;;;;;;;17.83;43.35;93900.72;4900403;29;20044;-87
2023/05/04 10:11:26;;;;;;;322.50;151.68;;;;;;;17.83;43.26;93887.81;4934294;28;20054;-86
2023/05/04 10:13:53;;;;;;;1595.97;395.55;;;;;;;17.84;42.15;93888.56;4925281;29;20040;-88
2023/05/04 10:16:26;;;;;;;912.20;205.00;;;;;;;17.82;38.92;93878.09;4916413;28;20036;-89
2023/05/04 10:19:10;;;;;;;505.50;102.35;;;;;;;17.71;38.03;93872.63;4901527;29;20196;-88
2023/05/04 10:21:48;;;;;;;202.27;50.35;;;;;;;17.63;37.59;93869.59;4943026;28;20047;-87
2023/05/04 10:24:27;;;;;;;155.35;32.55;;;;;;;17.56;37.67;93878.28;4921574;28;20052;-88
2023/05/04 10:27:02;;;;;;;286.73;50.60;;;;;;;17.59;37.77;93855.44;4916599;29;20591;-87
2023/05/04 10:29:28;;;;;;;272.45;43.70;;;;;;;17.46;37.09;93872.31;4914167;29;20050;-90
2023/05/04 10:31:55;;;;;;;192.90;34.90;;;;;;;17.47;36.97;93859.38;4909886;29;20044;-88
2023/05/04 10:34:31;;;;;;;119.38;25.65;;;;;;;17.35;36.96;93855.13;4920099;28;20446;-88
2023/05/04 10:36:57;;;;;;;78.68;17.00;;;;;;;17.33;36.49;93855.63;4928427;29;20044;-87
2023/05/04 10:39:24;;;;;;;64.00;13.52;;;;;;;17.43;36.16;93850.69;4908643;29;20059;-88
2023/05/04 10:42:00;;;;;;;41.10;10.70;;;;;;;17.39;36.46;93855.63;4875612;29;20435;-87
2023/05/04 10:44:26;;;;;;;21.10;7.18;;;;;;;17.37;37.75;93847.19;4893456;29;20043;-89
2023/05/04 10:46:58;;;;;;;22.02;7.38;;;;;;;17.26;37.48;93856.09;4900249;29;20494;-88
2023/05/04 10:49:23;;;;;;;26.83;6.78;;;;;;;17.30;37.54;93853.88;4895904;29;20056;-88
2023/05/04 10:51:48;;;;;;;15.70;5.00;;;;;;;17.23;36.57;93850.88;4885565;29;20500;-88
2023/05/04 10:54:20;;;;;;;10.70;4.80;;;;;;;17.20;37.06;93849.13;4901556;29;20036;-88
2023/05/04 10:56:45;;;;;;;24.77;8.65;;;;;;;17.20;36.93;93843.66;4853067;29;20040;-89
2023/05/04 10:59:11;;;;;;;29.38;10.32;;;;;;;17.24;37.55;93847.66;4876240;29;20531;-89
2023/05/04 11:01:46;;;;;;;34.47;15.65;;;;;;;17.23;37.63;93848.91;4879102;29;20452;-88
2023/05/04 11:04:20;;;;;;;44.95;21.40;;;;;;;17.21;37.53;93842.44;4935549;28;20039;-89
2023/05/04 11:06:55;;;;;;;39.30;19.80;;;;;;;17.22;37.09;93846.66;4865154;29;20132;-89
2023/05/04 11:09:20;;;;;;;43.40;19.02;;;;;;;17.25;37.55;93840.94;4866979;29;20041;-90